TVF28CY LGSA-LFPO
Flight info
| Callsign | TVF28CY |
|---|---|
| Flight time | N/A |
| Altitude | 38000 |
| Route | SOKRI UY151 DDM DCT XANIS DCT TUMBO DCT VAKSU DCT AMUGO/N0432F370 DCT BAXON/N0436F380 DCT AOSTA DCT ORSUD DCT MOLUS DCT UNKIR/N0406F320 DCT DJL |
| Aircraft | A320/M-SBDE2E3FGHIJ1J5M1P2RWYZ/LB1D1G1 |
Departure
| Time | 2026-05-05 07:52 |
|---|---|
| Airport | Chania International Airport (LGSA) |
Arrival
| Time | N/A |
|---|---|
| Airport | Paris-Orly Airport (LFPO) |
| Time | Latitude | Longitude | Altitude | Speed | Heading |
|---|---|---|---|---|---|
| 2026-05-05 07:26 | 35.53903 | 24.13950 | 498 ft | 0 kts | 21° |
| 2026-05-05 07:40 | 35.53892 | 24.13945 | 489 ft | 4 kts | 31° |
| 2026-05-05 07:41 | 35.53871 | 24.13924 | 496 ft | 4 kts | 44° |
| 2026-05-05 07:41 | 35.53854 | 24.13906 | 487 ft | 4 kts | 43° |
| 2026-05-05 07:41 | 35.53840 | 24.13881 | 491 ft | 4 kts | 87° |
| 2026-05-05 07:41 | 35.53842 | 24.13862 | 489 ft | 0 kts | 111° |
| 2026-05-05 07:44 | 35.53837 | 24.13879 | 489 ft | 7 kts | 111° |
| 2026-05-05 07:44 | 35.53817 | 24.13940 | 492 ft | 8 kts | 111° |
| 2026-05-05 07:44 | 35.53794 | 24.14008 | 489 ft | 8 kts | 112° |
| 2026-05-05 07:44 | 35.53766 | 24.14096 | 490 ft | 12 kts | 111° |
| 2026-05-05 07:45 | 35.53736 | 24.14186 | 495 ft | 11 kts | 112° |
| 2026-05-05 07:45 | 35.53708 | 24.14271 | 492 ft | 10 kts | 112° |
| 2026-05-05 07:45 | 35.53684 | 24.14345 | 496 ft | 5 kts | 112° |
| 2026-05-05 07:45 | 35.53657 | 24.14363 | 498 ft | 7 kts | 183° |
| 2026-05-05 07:46 | 35.53610 | 24.14346 | 489 ft | 7 kts | 202° |
| 2026-05-05 07:46 | 35.53570 | 24.14336 | 490 ft | 5 kts | 158° |
| 2026-05-05 07:46 | 35.53543 | 24.14397 | 495 ft | 12 kts | 111° |
| 2026-05-05 07:46 | 35.53500 | 24.14527 | 493 ft | 21 kts | 112° |
| 2026-05-05 07:47 | 35.53435 | 24.14726 | 497 ft | 29 kts | 111° |
| 2026-05-05 07:47 | 35.53357 | 24.14968 | 491 ft | 29 kts | 112° |
| 2026-05-05 07:47 | 35.53280 | 24.15204 | 494 ft | 27 kts | 111° |
| 2026-05-05 07:47 | 35.53208 | 24.15426 | 495 ft | 29 kts | 112° |
| 2026-05-05 07:48 | 35.53137 | 24.15644 | 494 ft | 24 kts | 111° |
| 2026-05-05 07:48 | 35.53078 | 24.15826 | 496 ft | 21 kts | 111° |
| 2026-05-05 07:48 | 35.53023 | 24.15996 | 495 ft | 22 kts | 111° |
| 2026-05-05 07:48 | 35.52966 | 24.16172 | 495 ft | 23 kts | 111° |
| 2026-05-05 07:49 | 35.52903 | 24.16360 | 496 ft | 25 kts | 112° |
| 2026-05-05 07:49 | 35.52842 | 24.16550 | 491 ft | 21 kts | 111° |
| 2026-05-05 07:49 | 35.52788 | 24.16717 | 498 ft | 19 kts | 112° |
| 2026-05-05 07:49 | 35.52754 | 24.16818 | 492 ft | 11 kts | 112° |
| 2026-05-05 07:50 | 35.52726 | 24.16872 | 493 ft | 6 kts | 154° |
| 2026-05-05 07:50 | 35.52675 | 24.16861 | 491 ft | 9 kts | 201° |
| 2026-05-05 07:50 | 35.52624 | 24.16836 | 499 ft | 8 kts | 202° |
| 2026-05-05 07:50 | 35.52580 | 24.16808 | 494 ft | 6 kts | 231° |
| 2026-05-05 07:51 | 35.52588 | 24.16759 | 490 ft | 9 kts | 293° |
| 2026-05-05 07:51 | 35.52691 | 24.16448 | 499 ft | 79 kts | 292° |
| 2026-05-05 07:51 | 35.52983 | 24.15553 | 491 ft | 144 kts | 292° |
| 2026-05-05 07:51 | 35.53379 | 24.14330 | 1056 ft | 154 kts | 292° |
| 2026-05-05 07:52 | 35.53772 | 24.13118 | 1903 ft | 152 kts | 292° |
| 2026-05-05 07:52 | 35.54166 | 24.11938 | 2707 ft | 151 kts | 292° |
| 2026-05-05 07:52 | 35.54630 | 24.10790 | 3433 ft | 151 kts | 310° |
| 2026-05-05 07:52 | 35.55468 | 24.10000 | 3999 ft | 161 kts | 339° |
| 2026-05-05 07:53 | 35.56638 | 24.09834 | 4400 ft | 182 kts | 7° |
| 2026-05-05 07:53 | 35.57982 | 24.10051 | 4883 ft | 206 kts | 7° |
| 2026-05-05 07:53 | 35.59432 | 24.10166 | 5695 ft | 212 kts | 352° |
| 2026-05-05 07:53 | 35.60809 | 24.09487 | 6628 ft | 219 kts | 327° |
| 2026-05-05 07:54 | 35.62027 | 24.08346 | 7548 ft | 221 kts | 325° |
| 2026-05-05 07:54 | 35.63229 | 24.07200 | 8482 ft | 223 kts | 325° |
| 2026-05-05 07:54 | 35.64506 | 24.05985 | 9077 ft | 244 kts | 324° |
| 2026-05-05 07:54 | 35.65916 | 24.04645 | 9602 ft | 266 kts | 324° |
| 2026-05-05 07:55 | 35.67406 | 24.03227 | 10390 ft | 277 kts | 324° |
| 2026-05-05 07:55 | 35.68995 | 24.01715 | 10802 ft | 301 kts | 324° |
| 2026-05-05 07:55 | 35.70691 | 24.00100 | 11433 ft | 314 kts | 323° |
| 2026-05-05 07:55 | 35.72434 | 23.98437 | 12252 ft | 320 kts | 323° |
| 2026-05-05 07:56 | 35.74210 | 23.96743 | 13092 ft | 326 kts | 323° |
| 2026-05-05 07:56 | 35.76020 | 23.95020 | 13918 ft | 332 kts | 323° |
| 2026-05-05 07:56 | 35.77833 | 23.93294 | 14647 ft | 336 kts | 323° |
| 2026-05-05 07:56 | 35.79695 | 23.91518 | 15398 ft | 340 kts | 323° |
| 2026-05-05 07:57 | 35.81577 | 23.89720 | 16130 ft | 345 kts | 323° |
| 2026-05-05 07:57 | 35.83484 | 23.87898 | 16880 ft | 348 kts | 323° |
| 2026-05-05 07:57 | 35.85408 | 23.86058 | 17622 ft | 353 kts | 323° |
| 2026-05-05 07:57 | 35.87358 | 23.84192 | 18357 ft | 357 kts | 323° |
| 2026-05-05 07:58 | 35.89329 | 23.82308 | 19014 ft | 360 kts | 323° |
| 2026-05-05 07:58 | 35.91311 | 23.80414 | 19726 ft | 360 kts | 323° |
| 2026-05-05 07:58 | 35.93263 | 23.78545 | 20459 ft | 360 kts | 323° |
| 2026-05-05 07:58 | 35.95240 | 23.76648 | 21211 ft | 360 kts | 323° |
| 2026-05-05 07:59 | 35.97211 | 23.74749 | 21934 ft | 359 kts | 322° |
| 2026-05-05 07:59 | 35.99179 | 23.72851 | 22679 ft | 359 kts | 323° |
| 2026-05-05 07:59 | 36.01146 | 23.70957 | 23396 ft | 359 kts | 323° |
| 2026-05-05 07:59 | 36.03116 | 23.69062 | 24011 ft | 359 kts | 323° |
| 2026-05-05 08:00 | 36.05090 | 23.67163 | 24546 ft | 361 kts | 323° |
| 2026-05-05 08:00 | 36.07075 | 23.65253 | 25058 ft | 362 kts | 323° |
| 2026-05-05 08:00 | 36.09042 | 23.63360 | 25550 ft | 364 kts | 322° |
| 2026-05-05 08:00 | 36.11043 | 23.61431 | 26044 ft | 366 kts | 322° |
| 2026-05-05 08:01 | 36.13056 | 23.59486 | 26527 ft | 368 kts | 322° |
| 2026-05-05 08:01 | 36.15082 | 23.57531 | 26999 ft | 370 kts | 322° |
| 2026-05-05 08:01 | 36.17121 | 23.55566 | 27466 ft | 373 kts | 322° |
| 2026-05-05 08:01 | 36.19172 | 23.53590 | 27935 ft | 375 kts | 322° |
| 2026-05-05 08:02 | 36.21232 | 23.51599 | 28396 ft | 377 kts | 322° |
| 2026-05-05 08:02 | 36.23306 | 23.49598 | 28828 ft | 379 kts | 323° |
| 2026-05-05 08:02 | 36.25566 | 23.47899 | 29278 ft | 382 kts | 333° |
| 2026-05-05 08:02 | 36.28038 | 23.46780 | 29704 ft | 387 kts | 343° |
| 2026-05-05 08:03 | 36.30701 | 23.46165 | 30117 ft | 391 kts | 348° |
| 2026-05-05 08:03 | 36.33396 | 23.45617 | 30481 ft | 393 kts | 347° |
| 2026-05-05 08:03 | 36.36103 | 23.45063 | 30826 ft | 396 kts | 347° |
| 2026-05-05 08:03 | 36.38826 | 23.44503 | 31161 ft | 397 kts | 347° |
| 2026-05-05 08:04 | 36.41559 | 23.43940 | 31499 ft | 399 kts | 347° |
| 2026-05-05 08:04 | 36.44304 | 23.43374 | 31834 ft | 401 kts | 347° |
| 2026-05-05 08:04 | 36.47061 | 23.42805 | 32199 ft | 401 kts | 347° |
| 2026-05-05 08:04 | 36.49768 | 23.42245 | 32683 ft | 399 kts | 346° |
| 2026-05-05 08:05 | 36.52497 | 23.41680 | 33190 ft | 397 kts | 346° |
| 2026-05-05 08:05 | 36.55217 | 23.41115 | 33658 ft | 395 kts | 346° |
| 2026-05-05 08:05 | 36.57927 | 23.40553 | 34122 ft | 394 kts | 346° |
| 2026-05-05 08:05 | 36.60627 | 23.39997 | 34526 ft | 393 kts | 346° |
| 2026-05-05 08:06 | 36.63324 | 23.39442 | 34896 ft | 392 kts | 346° |
| 2026-05-05 08:06 | 36.66012 | 23.38883 | 35241 ft | 392 kts | 346° |
| 2026-05-05 08:06 | 36.68701 | 23.38321 | 35572 ft | 392 kts | 346° |
| 2026-05-05 08:06 | 36.71355 | 23.37768 | 35888 ft | 392 kts | 346° |
| 2026-05-05 08:07 | 36.74043 | 23.37209 | 36205 ft | 392 kts | 346° |
| 2026-05-05 08:07 | 36.76730 | 23.36651 | 36559 ft | 391 kts | 346° |
| 2026-05-05 08:07 | 36.79415 | 23.36094 | 36864 ft | 391 kts | 346° |
| 2026-05-05 08:07 | 36.82094 | 23.35537 | 37171 ft | 390 kts | 346° |
| 2026-05-05 08:08 | 36.84770 | 23.34975 | 37475 ft | 390 kts | 346° |
| 2026-05-05 08:08 | 36.87444 | 23.34413 | 37777 ft | 390 kts | 346° |
| 2026-05-05 08:08 | 36.90119 | 23.33853 | 38047 ft | 390 kts | 346° |
| 2026-05-05 08:08 | 36.92792 | 23.33295 | 38131 ft | 389 kts | 346° |
| 2026-05-05 08:09 | 36.98078 | 23.32192 | 38154 ft | 387 kts | 346° |
| 2026-05-05 08:09 | 37.03385 | 23.31082 | 38133 ft | 387 kts | 346° |
| 2026-05-05 08:10 | 37.08689 | 23.29966 | 38133 ft | 386 kts | 346° |
| 2026-05-05 08:10 | 37.13958 | 23.28857 | 38131 ft | 386 kts | 346° |
| 2026-05-05 08:11 | 37.19264 | 23.27749 | 38130 ft | 386 kts | 346° |
| 2026-05-05 08:11 | 37.24567 | 23.26633 | 38139 ft | 386 kts | 346° |
| 2026-05-05 08:12 | 37.29869 | 23.25512 | 38135 ft | 386 kts | 346° |
| 2026-05-05 08:12 | 37.35170 | 23.24388 | 38125 ft | 386 kts | 346° |
| 2026-05-05 08:13 | 37.40437 | 23.23274 | 38124 ft | 386 kts | 346° |
| 2026-05-05 08:13 | 37.45725 | 23.22057 | 38139 ft | 384 kts | 341° |
| 2026-05-05 08:14 | 37.50492 | 23.19207 | 38128 ft | 380 kts | 323° |
| 2026-05-05 08:14 | 37.54746 | 23.15257 | 38121 ft | 380 kts | 323° |
| 2026-05-05 08:15 | 37.58977 | 23.11332 | 38122 ft | 380 kts | 323° |
| 2026-05-05 08:15 | 37.63244 | 23.07377 | 38108 ft | 381 kts | 323° |
| 2026-05-05 08:16 | 37.67505 | 23.03413 | 38119 ft | 380 kts | 323° |
| 2026-05-05 08:16 | 37.71761 | 22.99451 | 38141 ft | 380 kts | 323° |
| 2026-05-05 08:17 | 37.75990 | 22.95510 | 38140 ft | 380 kts | 323° |
| 2026-05-05 08:17 | 37.80245 | 22.91537 | 38137 ft | 380 kts | 323° |
| 2026-05-05 08:18 | 37.84502 | 22.87557 | 38130 ft | 380 kts | 323° |
| 2026-05-05 08:18 | 37.88754 | 22.83570 | 38133 ft | 381 kts | 323° |
| 2026-05-05 08:19 | 37.92981 | 22.79607 | 38133 ft | 381 kts | 323° |
| 2026-05-05 08:19 | 37.97235 | 22.75607 | 38116 ft | 381 kts | 323° |
| 2026-05-05 08:20 | 38.01488 | 22.71602 | 38135 ft | 381 kts | 323° |
| 2026-05-05 08:20 | 38.05742 | 22.67591 | 38135 ft | 381 kts | 323° |
| 2026-05-05 08:21 | 38.09968 | 22.63603 | 38133 ft | 381 kts | 323° |
| 2026-05-05 08:21 | 38.14227 | 22.59586 | 38135 ft | 381 kts | 323° |
| 2026-05-05 08:22 | 38.18479 | 22.55559 | 38134 ft | 381 kts | 323° |
| 2026-05-05 08:22 | 38.22727 | 22.51521 | 38135 ft | 381 kts | 323° |
| 2026-05-05 08:23 | 38.26944 | 22.47504 | 38147 ft | 381 kts | 323° |
| 2026-05-05 08:23 | 38.31195 | 22.43462 | 38124 ft | 381 kts | 323° |
| 2026-05-05 08:24 | 38.35450 | 22.39424 | 38127 ft | 381 kts | 323° |
| 2026-05-05 08:24 | 38.39702 | 22.35376 | 38127 ft | 381 kts | 323° |
| 2026-05-05 08:25 | 38.43920 | 22.31351 | 38135 ft | 381 kts | 323° |
| 2026-05-05 08:25 | 38.48164 | 22.27287 | 38134 ft | 381 kts | 323° |
| 2026-05-05 08:26 | 38.52402 | 22.23219 | 38132 ft | 381 kts | 323° |
| 2026-05-05 08:26 | 38.56643 | 22.19152 | 38135 ft | 381 kts | 323° |
| 2026-05-05 08:27 | 38.60751 | 22.14869 | 38130 ft | 381 kts | 319° |
| 2026-05-05 08:27 | 38.64685 | 22.10390 | 38116 ft | 381 kts | 318° |
| 2026-05-05 08:28 | 38.68648 | 22.05871 | 38119 ft | 382 kts | 319° |
| 2026-05-05 08:28 | 38.72649 | 22.01370 | 38124 ft | 383 kts | 319° |
| 2026-05-05 08:29 | 38.76657 | 21.96884 | 38123 ft | 383 kts | 319° |
| 2026-05-05 08:30 | 38.82650 | 21.90170 | 38142 ft | 383 kts | 319° |
| 2026-05-05 08:30 | 38.86653 | 21.85669 | 38142 ft | 383 kts | 319° |
| 2026-05-05 08:31 | 38.90658 | 21.81158 | 38139 ft | 383 kts | 319° |
| 2026-05-05 08:31 | 38.94628 | 21.76673 | 38124 ft | 382 kts | 319° |
| 2026-05-05 08:32 | 38.98628 | 21.72149 | 38127 ft | 383 kts | 319° |
| 2026-05-05 08:32 | 39.02627 | 21.67625 | 38122 ft | 383 kts | 319° |
| 2026-05-05 08:33 | 39.06628 | 21.63094 | 38128 ft | 384 kts | 319° |
| 2026-05-05 08:33 | 39.10603 | 21.58582 | 38135 ft | 383 kts | 319° |
| 2026-05-05 08:34 | 39.14597 | 21.54043 | 38138 ft | 383 kts | 319° |
| 2026-05-05 08:34 | 39.18592 | 21.49492 | 38146 ft | 383 kts | 319° |
| 2026-05-05 08:35 | 39.22584 | 21.44947 | 38145 ft | 383 kts | 319° |
| 2026-05-05 08:35 | 39.26549 | 21.40425 | 38147 ft | 383 kts | 319° |
| 2026-05-05 08:36 | 39.30530 | 21.35866 | 38149 ft | 382 kts | 319° |
| 2026-05-05 08:36 | 39.34510 | 21.31306 | 38146 ft | 382 kts | 318° |
| 2026-05-05 08:37 | 39.38490 | 21.26743 | 38160 ft | 383 kts | 318° |
| 2026-05-05 08:37 | 39.41797 | 21.22943 | 38156 ft | 383 kts | 318° |
| 2026-05-05 08:38 | 39.46421 | 21.17623 | 38141 ft | 383 kts | 318° |
| 2026-05-05 08:38 | 39.50405 | 21.13037 | 38135 ft | 383 kts | 318° |
| 2026-05-05 08:39 | 39.53714 | 21.09216 | 38139 ft | 384 kts | 318° |
| 2026-05-05 08:39 | 39.57697 | 21.04607 | 38145 ft | 384 kts | 318° |
| 2026-05-05 08:40 | 39.62319 | 20.99242 | 38165 ft | 384 kts | 318° |
| 2026-05-05 08:40 | 39.65627 | 20.95399 | 38170 ft | 384 kts | 317° |
| 2026-05-05 08:41 | 39.69606 | 20.90775 | 38168 ft | 384 kts | 318° |
| 2026-05-05 08:41 | 39.73586 | 20.86146 | 38168 ft | 384 kts | 318° |
| 2026-05-05 08:42 | 39.78212 | 20.80759 | 38169 ft | 384 kts | 317° |
| 2026-05-05 08:42 | 39.81517 | 20.76899 | 38150 ft | 384 kts | 317° |
| 2026-05-05 08:43 | 39.85497 | 20.72247 | 38144 ft | 385 kts | 317° |
| 2026-05-05 08:43 | 39.89478 | 20.67586 | 38166 ft | 385 kts | 317° |
| 2026-05-05 08:44 | 39.93456 | 20.62918 | 38157 ft | 385 kts | 317° |
| 2026-05-05 08:44 | 39.97435 | 20.58241 | 38147 ft | 385 kts | 317° |
| 2026-05-05 08:45 | 40.01384 | 20.53596 | 38140 ft | 385 kts | 317° |
| 2026-05-05 08:45 | 40.05351 | 20.48904 | 38142 ft | 385 kts | 317° |
| 2026-05-05 08:46 | 40.09540 | 20.44566 | 38128 ft | 385 kts | 322° |
| 2026-05-05 08:46 | 40.13831 | 20.40432 | 38128 ft | 386 kts | 321° |
| 2026-05-05 08:47 | 40.18151 | 20.36263 | 38141 ft | 386 kts | 321° |
| 2026-05-05 08:47 | 40.22467 | 20.32089 | 38138 ft | 386 kts | 321° |
| 2026-05-05 08:48 | 40.26788 | 20.27905 | 38142 ft | 386 kts | 321° |
| 2026-05-05 08:48 | 40.31077 | 20.23742 | 38142 ft | 386 kts | 321° |
| 2026-05-05 08:49 | 40.35389 | 20.19538 | 38138 ft | 387 kts | 321° |
| 2026-05-05 08:49 | 40.39709 | 20.15327 | 38141 ft | 387 kts | 321° |
| 2026-05-05 08:50 | 40.44034 | 20.11112 | 38143 ft | 387 kts | 321° |
| 2026-05-05 08:50 | 40.48354 | 20.06884 | 38144 ft | 387 kts | 321° |
| 2026-05-05 08:51 | 40.52646 | 20.02683 | 38146 ft | 387 kts | 321° |
| 2026-05-05 08:51 | 40.56970 | 19.98452 | 38145 ft | 387 kts | 321° |
| 2026-05-05 08:52 | 40.61288 | 19.94217 | 38146 ft | 387 kts | 321° |
| 2026-05-05 08:52 | 40.65608 | 19.89975 | 38150 ft | 387 kts | 321° |
| 2026-05-05 08:53 | 40.69898 | 19.85765 | 38154 ft | 387 kts | 321° |
| 2026-05-05 08:53 | 40.74204 | 19.81501 | 38153 ft | 387 kts | 321° |
| 2026-05-05 08:54 | 40.78516 | 19.77238 | 38131 ft | 387 kts | 320° |
| 2026-05-05 08:54 | 40.82833 | 19.72967 | 38132 ft | 388 kts | 320° |
| 2026-05-05 08:55 | 40.87156 | 19.68687 | 38134 ft | 389 kts | 320° |
| 2026-05-05 08:55 | 40.91453 | 19.64421 | 38155 ft | 389 kts | 320° |
| 2026-05-05 08:56 | 40.95780 | 19.60113 | 38153 ft | 389 kts | 320° |
| 2026-05-05 08:56 | 41.00106 | 19.55795 | 38152 ft | 389 kts | 320° |
| 2026-05-05 08:57 | 41.04433 | 19.51480 | 38154 ft | 389 kts | 320° |
| 2026-05-05 08:57 | 41.08730 | 19.47183 | 38153 ft | 389 kts | 320° |
| 2026-05-05 08:58 | 41.13055 | 19.42854 | 38145 ft | 390 kts | 320° |
| 2026-05-05 08:58 | 41.17383 | 19.38512 | 38142 ft | 390 kts | 320° |
| 2026-05-05 08:59 | 41.21717 | 19.34151 | 38144 ft | 391 kts | 320° |
| 2026-05-05 08:59 | 41.26029 | 19.29818 | 38147 ft | 391 kts | 320° |
| 2026-05-05 09:00 | 41.30366 | 19.25456 | 38142 ft | 391 kts | 320° |
| 2026-05-05 09:00 | 41.34697 | 19.21080 | 38145 ft | 391 kts | 320° |
| 2026-05-05 09:01 | 41.39024 | 19.16689 | 38148 ft | 391 kts | 320° |
| 2026-05-05 09:01 | 41.43353 | 19.12297 | 38159 ft | 391 kts | 320° |
| 2026-05-05 09:02 | 41.47662 | 19.07933 | 38137 ft | 392 kts | 319° |
| 2026-05-05 09:02 | 41.51998 | 19.03523 | 38136 ft | 392 kts | 319° |
| 2026-05-05 09:03 | 41.56329 | 18.99099 | 38136 ft | 392 kts | 319° |
| 2026-05-05 09:03 | 41.60662 | 18.94676 | 38136 ft | 392 kts | 319° |
| 2026-05-05 09:04 | 41.64966 | 18.90279 | 38145 ft | 392 kts | 319° |
| 2026-05-05 09:04 | 41.69300 | 18.85834 | 38141 ft | 393 kts | 319° |
| 2026-05-05 09:05 | 41.73634 | 18.81383 | 38139 ft | 393 kts | 319° |
| 2026-05-05 09:05 | 41.77973 | 18.76927 | 38122 ft | 393 kts | 319° |
| 2026-05-05 09:06 | 41.82289 | 18.72489 | 38129 ft | 394 kts | 319° |
| 2026-05-05 09:06 | 41.86640 | 18.68004 | 38125 ft | 395 kts | 319° |
| 2026-05-05 09:07 | 41.90988 | 18.63504 | 38143 ft | 395 kts | 318° |
| 2026-05-05 09:07 | 41.95340 | 18.58990 | 38140 ft | 395 kts | 319° |
| 2026-05-05 09:08 | 41.99672 | 18.54509 | 38140 ft | 396 kts | 318° |
| 2026-05-05 09:08 | 42.03417 | 18.49218 | 38139 ft | 390 kts | 304° |
| 2026-05-05 09:09 | 42.06710 | 18.43421 | 38140 ft | 390 kts | 305° |
| 2026-05-05 09:09 | 42.10011 | 18.37618 | 38120 ft | 391 kts | 305° |
| 2026-05-05 09:10 | 42.13291 | 18.31835 | 38125 ft | 392 kts | 304° |
| 2026-05-05 09:10 | 42.16602 | 18.25996 | 38145 ft | 393 kts | 304° |
| 2026-05-05 09:11 | 42.19921 | 18.20138 | 38142 ft | 393 kts | 304° |
| 2026-05-05 09:11 | 42.23236 | 18.14264 | 38136 ft | 394 kts | 304° |
| 2026-05-05 09:12 | 42.26548 | 18.08376 | 38133 ft | 394 kts | 304° |
| 2026-05-05 09:12 | 42.29837 | 18.02524 | 38135 ft | 394 kts | 304° |
| 2026-05-05 09:13 | 42.33146 | 17.96628 | 38136 ft | 394 kts | 304° |
| 2026-05-05 09:13 | 42.36450 | 17.90727 | 38134 ft | 393 kts | 304° |
| 2026-05-05 09:14 | 42.39748 | 17.84820 | 38127 ft | 394 kts | 304° |
| 2026-05-05 09:14 | 42.43044 | 17.78903 | 38136 ft | 394 kts | 304° |
| 2026-05-05 09:15 | 42.46319 | 17.73018 | 38125 ft | 394 kts | 304° |
| 2026-05-05 09:15 | 42.49618 | 17.67075 | 38121 ft | 395 kts | 304° |
| 2026-05-05 09:16 | 42.52915 | 17.61118 | 38106 ft | 395 kts | 304° |
| 2026-05-05 09:16 | 42.56137 | 17.55080 | 38100 ft | 395 kts | 302° |
| 2026-05-05 09:17 | 42.59136 | 17.48897 | 38108 ft | 395 kts | 300° |
| 2026-05-05 09:17 | 42.62109 | 17.42624 | 38108 ft | 395 kts | 300° |
| 2026-05-05 09:18 | 42.65109 | 17.36366 | 38102 ft | 395 kts | 301° |
| 2026-05-05 09:18 | 42.68130 | 17.30118 | 38096 ft | 396 kts | 301° |
| 2026-05-05 09:19 | 42.71123 | 17.23894 | 38105 ft | 396 kts | 301° |
| 2026-05-05 09:19 | 42.74136 | 17.17613 | 38112 ft | 397 kts | 301° |
| 2026-05-05 09:20 | 42.77152 | 17.11321 | 38106 ft | 397 kts | 301° |
| 2026-05-05 09:20 | 42.80172 | 17.05026 | 38116 ft | 397 kts | 301° |
| 2026-05-05 09:21 | 42.83164 | 16.98761 | 38092 ft | 397 kts | 300° |
| 2026-05-05 09:21 | 42.86178 | 16.92443 | 38100 ft | 398 kts | 300° |
| 2026-05-05 09:22 | 42.89197 | 16.86114 | 38089 ft | 398 kts | 301° |
| 2026-05-05 09:22 | 42.92211 | 16.79781 | 38095 ft | 398 kts | 300° |
| 2026-05-05 09:23 | 42.95216 | 16.73432 | 38091 ft | 398 kts | 300° |
| 2026-05-05 09:23 | 42.98197 | 16.67122 | 38087 ft | 398 kts | 300° |
| 2026-05-05 09:24 | 43.01192 | 16.60769 | 38098 ft | 398 kts | 300° |
| 2026-05-05 09:24 | 43.04185 | 16.54400 | 38080 ft | 398 kts | 300° |
| 2026-05-05 09:25 | 43.07179 | 16.48021 | 38072 ft | 399 kts | 300° |
| 2026-05-05 09:25 | 43.10157 | 16.41667 | 38080 ft | 400 kts | 300° |
| 2026-05-05 09:26 | 43.13157 | 16.35262 | 38085 ft | 400 kts | 300° |
| 2026-05-05 09:26 | 43.16154 | 16.28844 | 38086 ft | 400 kts | 300° |
| 2026-05-05 09:27 | 43.19142 | 16.22420 | 38092 ft | 400 kts | 300° |
| 2026-05-05 09:27 | 43.22124 | 16.15988 | 38075 ft | 400 kts | 300° |
| 2026-05-05 09:28 | 43.25090 | 16.09603 | 38093 ft | 400 kts | 300° |
| 2026-05-05 09:28 | 43.28073 | 16.03162 | 38083 ft | 400 kts | 300° |
| 2026-05-05 09:29 | 43.31050 | 15.96713 | 38073 ft | 400 kts | 300° |
| 2026-05-05 09:29 | 43.34027 | 15.90236 | 38061 ft | 402 kts | 300° |
| 2026-05-05 09:30 | 43.36989 | 15.83784 | 38059 ft | 402 kts | 300° |
| 2026-05-05 09:30 | 43.39973 | 15.77275 | 38062 ft | 403 kts | 300° |
| 2026-05-05 09:31 | 43.42959 | 15.70757 | 38067 ft | 403 kts | 300° |
| 2026-05-05 09:31 | 43.45937 | 15.64225 | 38071 ft | 403 kts | 300° |
| 2026-05-05 09:32 | 43.48894 | 15.57727 | 38071 ft | 403 kts | 300° |
| 2026-05-05 09:32 | 43.51872 | 15.51189 | 38076 ft | 403 kts | 299° |
| 2026-05-05 09:33 | 43.54840 | 15.44644 | 38079 ft | 403 kts | 299° |
| 2026-05-05 09:33 | 43.57803 | 15.38099 | 38084 ft | 403 kts | 299° |
| 2026-05-05 09:34 | 43.60748 | 15.31580 | 38062 ft | 403 kts | 299° |
| 2026-05-05 09:34 | 43.63713 | 15.25001 | 38063 ft | 404 kts | 299° |
| 2026-05-05 09:35 | 43.66674 | 15.18403 | 38042 ft | 404 kts | 299° |
| 2026-05-05 09:35 | 43.71096 | 15.08519 | 38044 ft | 405 kts | 299° |
| 2026-05-05 09:36 | 43.74055 | 15.01892 | 38042 ft | 405 kts | 299° |
| 2026-05-05 09:36 | 43.77015 | 14.95253 | 38044 ft | 406 kts | 299° |
| 2026-05-05 09:37 | 43.79976 | 14.88602 | 38047 ft | 406 kts | 299° |
| 2026-05-05 09:37 | 43.82931 | 14.81942 | 38052 ft | 406 kts | 299° |
| 2026-05-05 09:38 | 43.85863 | 14.75324 | 38060 ft | 406 kts | 299° |
| 2026-05-05 09:38 | 43.88810 | 14.68650 | 38060 ft | 406 kts | 299° |
| 2026-05-05 09:39 | 43.91747 | 14.61969 | 38054 ft | 405 kts | 299° |
| 2026-05-05 09:39 | 43.94685 | 14.55294 | 38054 ft | 405 kts | 299° |
| 2026-05-05 09:40 | 43.97598 | 14.48657 | 38050 ft | 405 kts | 298° |
| 2026-05-05 09:40 | 44.00526 | 14.41972 | 38049 ft | 405 kts | 298° |
| 2026-05-05 09:41 | 44.03444 | 14.35282 | 38047 ft | 405 kts | 298° |
| 2026-05-05 09:41 | 44.06358 | 14.28590 | 38044 ft | 405 kts | 298° |
| 2026-05-05 09:42 | 44.09271 | 14.21888 | 38044 ft | 405 kts | 298° |
| 2026-05-05 09:42 | 44.12163 | 14.15222 | 38053 ft | 405 kts | 298° |
| 2026-05-05 09:43 | 44.15075 | 14.08495 | 38036 ft | 406 kts | 298° |
| 2026-05-05 09:43 | 44.17983 | 14.01751 | 38034 ft | 406 kts | 298° |
| 2026-05-05 09:44 | 44.20892 | 13.94991 | 38036 ft | 407 kts | 298° |
| 2026-05-05 09:44 | 44.23784 | 13.88269 | 38047 ft | 407 kts | 298° |
| 2026-05-05 09:45 | 44.26697 | 13.81477 | 38044 ft | 408 kts | 298° |
| 2026-05-05 09:45 | 44.27188 | 13.80328 | 38044 ft | 408 kts | 298° |
| 2026-05-05 09:46 | 44.32352 | 13.68235 | 38044 ft | 408 kts | 298° |
| 2026-05-05 09:46 | 44.35253 | 13.61421 | 38043 ft | 408 kts | 298° |
| 2026-05-05 09:47 | 44.38142 | 13.54597 | 38051 ft | 408 kts | 298° |
| 2026-05-05 09:47 | 44.41023 | 13.47767 | 38053 ft | 408 kts | 296° |
| 2026-05-05 09:48 | 44.43142 | 13.40516 | 38041 ft | 405 kts | 288° |
| 2026-05-05 09:48 | 44.45047 | 13.33096 | 38038 ft | 405 kts | 288° |
| 2026-05-05 09:49 | 44.46961 | 13.25670 | 38033 ft | 406 kts | 288° |
| 2026-05-05 09:49 | 44.48870 | 13.18230 | 38049 ft | 406 kts | 288° |
| 2026-05-05 09:50 | 44.50754 | 13.10833 | 38043 ft | 406 kts | 287° |
| 2026-05-05 09:50 | 44.52637 | 13.03381 | 38044 ft | 406 kts | 287° |
| 2026-05-05 09:51 | 44.54520 | 12.95931 | 38041 ft | 405 kts | 287° |
| 2026-05-05 09:51 | 44.56397 | 12.88495 | 38039 ft | 404 kts | 287° |
| 2026-05-05 09:52 | 44.58256 | 12.81115 | 38041 ft | 404 kts | 287° |
| 2026-05-05 09:52 | 44.60122 | 12.73682 | 38040 ft | 404 kts | 287° |
| 2026-05-05 09:53 | 44.61978 | 12.66251 | 38041 ft | 404 kts | 287° |
| 2026-05-05 09:53 | 44.63833 | 12.58808 | 38043 ft | 404 kts | 287° |
| 2026-05-05 09:54 | 44.65668 | 12.51421 | 38050 ft | 403 kts | 286° |
| 2026-05-05 09:54 | 44.67505 | 12.43996 | 38049 ft | 402 kts | 286° |
| 2026-05-05 09:55 | 44.69333 | 12.36569 | 38047 ft | 402 kts | 286° |
| 2026-05-05 09:55 | 44.71158 | 12.29145 | 38046 ft | 401 kts | 286° |
| 2026-05-05 09:56 | 44.72966 | 12.21783 | 38044 ft | 401 kts | 286° |
| 2026-05-05 09:56 | 44.74783 | 12.14370 | 38039 ft | 401 kts | 285° |
| 2026-05-05 09:57 | 44.76594 | 12.06938 | 38025 ft | 402 kts | 285° |
| 2026-05-05 09:57 | 44.78397 | 11.99492 | 38022 ft | 402 kts | 285° |
| 2026-05-05 09:58 | 44.80187 | 11.92081 | 38013 ft | 403 kts | 285° |
| 2026-05-05 09:58 | 44.81988 | 11.84621 | 38024 ft | 402 kts | 285° |
| 2026-05-05 09:59 | 44.83777 | 11.77163 | 38023 ft | 402 kts | 285° |
| 2026-05-05 09:59 | 44.85559 | 11.69711 | 38029 ft | 401 kts | 285° |
| 2026-05-05 10:00 | 44.87321 | 11.62306 | 38029 ft | 401 kts | 285° |
| 2026-05-05 10:00 | 44.89094 | 11.54862 | 38031 ft | 400 kts | 285° |
| 2026-05-05 10:01 | 44.90858 | 11.47417 | 38037 ft | 400 kts | 285° |
| 2026-05-05 10:01 | 44.92619 | 11.39973 | 38033 ft | 400 kts | 285° |
| 2026-05-05 10:02 | 44.94379 | 11.32529 | 38028 ft | 400 kts | 285° |
| 2026-05-05 10:02 | 44.96116 | 11.25125 | 38026 ft | 400 kts | 284° |
| 2026-05-05 10:03 | 44.97858 | 11.17667 | 38020 ft | 400 kts | 284° |
| 2026-05-05 10:03 | 44.99593 | 11.10204 | 38020 ft | 400 kts | 284° |
| 2026-05-05 10:04 | 45.01330 | 11.02734 | 38041 ft | 400 kts | 284° |
| 2026-05-05 10:04 | 45.03052 | 10.95314 | 38039 ft | 400 kts | 284° |
| 2026-05-05 10:05 | 45.04772 | 10.87852 | 38032 ft | 399 kts | 284° |
| 2026-05-05 10:05 | 45.06489 | 10.80392 | 38025 ft | 399 kts | 284° |
| 2026-05-05 10:06 | 45.08196 | 10.72934 | 38028 ft | 399 kts | 284° |
| 2026-05-05 10:06 | 45.09893 | 10.65506 | 38012 ft | 399 kts | 284° |
| 2026-05-05 10:07 | 45.11599 | 10.58024 | 38002 ft | 400 kts | 284° |
| 2026-05-05 10:07 | 45.13302 | 10.50532 | 37996 ft | 400 kts | 284° |
| 2026-05-05 10:08 | 45.14998 | 10.43033 | 37995 ft | 400 kts | 284° |
| 2026-05-05 10:08 | 45.16672 | 10.35570 | 38014 ft | 400 kts | 283° |
| 2026-05-05 10:09 | 45.18359 | 10.28039 | 38007 ft | 401 kts | 283° |
| 2026-05-05 10:09 | 45.20048 | 10.20501 | 37996 ft | 400 kts | 283° |
| 2026-05-05 10:10 | 45.21729 | 10.12976 | 37997 ft | 400 kts | 283° |
| 2026-05-05 10:10 | 45.23388 | 10.05511 | 37995 ft | 399 kts | 283° |
| 2026-05-05 10:11 | 45.25047 | 9.98003 | 37989 ft | 399 kts | 283° |
| 2026-05-05 10:11 | 45.26705 | 9.90482 | 37985 ft | 400 kts | 283° |
| 2026-05-05 10:12 | 45.28363 | 9.82944 | 37981 ft | 400 kts | 283° |
| 2026-05-05 10:12 | 45.30004 | 9.75445 | 38012 ft | 401 kts | 283° |
| 2026-05-05 10:13 | 45.31654 | 9.67883 | 38055 ft | 401 kts | 283° |
| 2026-05-05 10:13 | 45.33296 | 9.60303 | 38070 ft | 402 kts | 282° |
| 2026-05-05 10:14 | 45.34936 | 9.52709 | 38080 ft | 402 kts | 282° |
| 2026-05-05 10:14 | 45.36578 | 9.45109 | 38087 ft | 402 kts | 282° |
| 2026-05-05 10:15 | 45.38209 | 9.37557 | 38086 ft | 402 kts | 282° |
| 2026-05-05 10:15 | 45.39841 | 9.29939 | 38025 ft | 403 kts | 282° |
| 2026-05-05 10:16 | 45.41469 | 9.22298 | 38002 ft | 404 kts | 282° |
| 2026-05-05 10:16 | 45.43101 | 9.14632 | 37999 ft | 405 kts | 282° |
| 2026-05-05 10:17 | 45.44717 | 9.06995 | 37987 ft | 406 kts | 282° |
| 2026-05-05 10:17 | 45.46342 | 8.99303 | 37999 ft | 406 kts | 282° |
| 2026-05-05 10:18 | 45.47962 | 8.91591 | 38028 ft | 407 kts | 282° |
| 2026-05-05 10:18 | 45.49583 | 8.83859 | 38026 ft | 407 kts | 282° |
| 2026-05-05 10:19 | 45.51199 | 8.76106 | 38031 ft | 408 kts | 282° |
| 2026-05-05 10:19 | 45.52800 | 8.68400 | 38029 ft | 408 kts | 282° |
| 2026-05-05 10:20 | 45.53344 | 8.65773 | 38030 ft | 408 kts | 282° |